createdAt,value
2022-11-23T00:02:04.677Z,5.10
2022-11-23T00:04:34.990Z,4.83
2022-11-23T00:07:03.433Z,4.84
2022-11-23T00:13:19.176Z,5.25
2022-11-23T00:15:47.565Z,5.20
2022-11-23T00:18:16.774Z,5.06
2022-11-23T00:20:47.011Z,5.28
2022-11-23T00:23:18.096Z,5.34
2022-11-23T00:25:47.423Z,5.66
2022-11-23T00:28:16.710Z,5.82
2022-11-23T00:30:51.286Z,5.88
2022-11-23T00:33:19.861Z,5.90
2022-11-23T00:35:49.947Z,5.92
2022-11-23T00:38:20.389Z,5.89
2022-11-23T00:40:50.687Z,5.73
2022-11-23T00:43:19.554Z,5.74
2022-11-23T00:45:51.342Z,5.78
2022-11-23T00:48:19.639Z,5.89
2022-11-23T00:50:49.990Z,5.83
2022-11-23T00:53:18.781Z,5.80
2022-11-23T00:55:53.323Z,5.39
2022-11-23T00:58:25.726Z,5.22
2022-11-23T01:01:02.822Z,5.08
2022-11-23T01:03:32.407Z,5.19
2022-11-23T01:06:07.875Z,5.28
2022-11-23T01:08:37.509Z,5.08
2022-11-23T01:11:07.912Z,5.14
2022-11-23T01:13:38.106Z,4.87
2022-11-23T01:16:09.352Z,4.83
2022-11-23T01:18:37.856Z,4.91
2022-11-23T01:21:07.809Z,4.87
2022-11-23T01:23:37.281Z,4.85
2022-11-23T01:26:07.585Z,4.92
2022-11-23T01:28:37.869Z,4.96
2022-11-23T01:31:08.844Z,4.89
2022-11-23T01:33:37.951Z,4.67
2022-11-23T01:36:16.970Z,4.34
2022-11-23T01:38:46.740Z,4.64
2022-11-23T01:41:17.342Z,4.57
2022-11-23T01:43:46.809Z,4.51
2022-11-23T01:46:15.185Z,4.49
2022-11-23T01:48:48.471Z,4.59
2022-11-23T01:51:22.613Z,4.36
2022-11-23T01:53:55.157Z,4.04
2022-11-23T01:56:31.828Z,3.56
2022-11-23T01:59:02.189Z,3.67
2022-11-23T02:01:31.876Z,4.00
2022-11-23T02:04:02.942Z,4.00
2022-11-23T02:06:34.042Z,4.23
2022-11-23T02:09:04.115Z,4.08
2022-11-23T02:11:32.293Z,4.16
2022-11-23T02:14:00.684Z,4.04
2022-11-23T02:16:31.943Z,4.30
2022-11-23T02:19:00.780Z,4.39
2022-11-23T02:21:29.261Z,4.41
2022-11-23T02:24:06.114Z,4.24
2022-11-23T02:26:39.191Z,4.55
2022-11-23T02:29:12.788Z,4.49
2022-11-23T02:31:40.914Z,4.65
2022-11-23T02:34:09.005Z,4.48
2022-11-23T02:36:40.945Z,4.52
2022-11-23T02:39:12.585Z,4.68
2022-11-23T02:41:44.683Z,4.67
2022-11-23T02:44:33.904Z,4.65
2022-11-23T02:47:02.261Z,4.65
2022-11-23T02:49:30.798Z,4.67
2022-11-23T02:51:59.107Z,4.68
2022-11-23T02:54:27.963Z,4.63
2022-11-23T02:56:57.487Z,4.57
2022-11-23T02:59:25.724Z,4.46
2022-11-23T03:01:54.875Z,4.46
2022-11-23T03:04:27.546Z,4.48
2022-11-23T03:06:56.300Z,4.30
2022-11-23T03:09:26.338Z,4.29
2022-11-23T03:11:54.986Z,4.30
2022-11-23T03:14:25.889Z,4.38
2022-11-23T03:16:59.495Z,4.46
2022-11-23T03:19:28.875Z,4.53
2022-11-23T03:21:57.501Z,4.49
2022-11-23T03:24:25.571Z,4.49
2022-11-23T03:26:55.476Z,4.22
2022-11-23T03:29:26.589Z,3.93
2022-11-23T03:31:56.578Z,3.80
2022-11-23T03:34:25.934Z,3.93
2022-11-23T03:36:54.011Z,4.05
2022-11-23T03:39:22.195Z,4.08
2022-11-23T03:41:50.279Z,4.09
2022-11-23T03:44:20.359Z,4.05
2022-11-23T03:46:51.509Z,4.09
2022-11-23T03:49:19.513Z,4.12
2022-11-23T03:51:47.522Z,3.81
2022-11-23T03:54:15.889Z,3.67
2022-11-23T03:56:44.169Z,3.87
2022-11-23T03:59:12.459Z,4.09
2022-11-23T04:01:40.754Z,4.39
2022-11-23T04:04:16.061Z,4.50
2022-11-23T04:07:13.636Z,4.50
2022-11-23T04:09:48.148Z,4.43
2022-11-23T04:12:38.871Z,4.47
2022-11-23T04:15:09.415Z,4.54
2022-11-23T04:17:37.904Z,4.62
2022-11-23T04:20:09.341Z,4.71
2022-11-23T04:22:38.074Z,4.63
2022-11-23T04:25:06.906Z,4.67
2022-11-23T04:27:35.030Z,4.51
2022-11-23T04:30:04.758Z,4.46
2022-11-23T04:32:33.518Z,4.46
2022-11-23T04:35:01.905Z,4.55
2022-11-23T04:37:31.393Z,4.47
2022-11-23T04:39:59.445Z,4.62
2022-11-23T04:42:38.662Z,4.55
2022-11-23T04:45:08.450Z,4.22
2022-11-23T04:47:37.309Z,4.37
2022-11-23T04:50:10.718Z,4.24
2022-11-23T04:52:40.394Z,4.14
2022-11-23T04:55:14.407Z,4.10
2022-11-23T04:57:50.662Z,4.35
2022-11-23T05:00:19.270Z,4.20
2022-11-23T05:02:48.967Z,4.19
2022-11-23T05:05:26.621Z,4.36
2022-11-23T05:07:58.874Z,4.17
2022-11-23T05:10:37.739Z,4.32
2022-11-23T05:13:06.648Z,4.31
2022-11-23T05:15:34.617Z,4.55
2022-11-23T05:18:03.615Z,4.63
2022-11-23T05:20:32.413Z,4.50
2022-11-23T05:23:01.992Z,4.45
2022-11-23T05:25:31.625Z,4.60
2022-11-23T05:28:16.676Z,4.78
2022-11-23T05:30:51.901Z,4.90
2022-11-23T05:33:20.233Z,4.82
2022-11-23T05:35:49.493Z,4.85
2022-11-23T05:38:21.309Z,4.90
2022-11-23T05:40:49.436Z,4.86
2022-11-23T05:43:17.729Z,4.90
2022-11-23T05:45:45.924Z,4.96
2022-11-23T05:48:15.782Z,4.94
2022-11-23T05:50:55.443Z,4.84
2022-11-23T05:53:35.990Z,4.68
2022-11-23T05:56:30.070Z,4.77
2022-11-23T05:59:16.854Z,4.73
2022-11-23T06:01:49.899Z,4.83
2022-11-23T06:04:25.252Z,4.73
2022-11-23T06:06:54.673Z,4.74
2022-11-23T06:09:24.099Z,4.86
2022-11-23T06:11:54.649Z,4.93
2022-11-23T06:14:23.083Z,4.99
2022-11-23T06:16:52.409Z,5.11
2022-11-23T06:19:33.801Z,5.12
2022-11-23T06:22:03.112Z,5.12
2022-11-23T06:24:36.438Z,4.97
2022-11-23T06:27:22.973Z,5.02
2022-11-23T06:29:52.384Z,4.83
2022-11-23T06:32:22.032Z,4.89
2022-11-23T06:34:50.099Z,5.05
2022-11-23T06:37:18.979Z,5.19
2022-11-23T06:39:54.378Z,5.16
2022-11-23T06:42:39.807Z,5.06
2022-11-23T06:45:18.305Z,5.12
2022-11-23T06:47:47.952Z,5.18
2022-11-23T06:50:17.139Z,5.22
2022-11-23T06:52:47.294Z,5.13
2022-11-23T06:55:16.980Z,5.26
2022-11-23T06:57:45.144Z,5.33
2022-11-23T07:00:15.621Z,5.29
2022-11-23T07:02:45.270Z,5.42
2022-11-23T07:05:16.499Z,5.38
2022-11-23T07:07:44.982Z,5.38
2022-11-23T07:10:21.874Z,5.42
2022-11-23T07:12:53.805Z,5.20
2022-11-23T07:15:23.466Z,5.52
2022-11-23T07:17:53.171Z,5.75
2022-11-23T07:20:23.354Z,5.80
2022-11-23T07:23:01.498Z,5.89
2022-11-23T07:25:31.570Z,6.06
2022-11-23T07:28:02.730Z,6.30
2022-11-23T07:30:32.643Z,6.56
2022-11-23T07:33:02.240Z,6.56
2022-11-23T07:35:31.779Z,6.74
2022-11-23T07:38:00.654Z,6.77
2022-11-23T07:40:29.393Z,7.00
2022-11-23T07:43:02.269Z,7.37
2022-11-23T07:45:31.706Z,7.74
2022-11-23T07:48:03.217Z,8.46
2022-11-23T07:50:31.653Z,9.67
2022-11-23T07:53:00.127Z,10.15
2022-11-23T07:55:28.494Z,10.72
2022-11-23T07:57:56.549Z,10.56
2022-11-23T08:00:28.922Z,10.83
2022-11-23T08:03:26.038Z,10.88
2022-11-23T08:05:47.322Z,10.68
2022-11-23T08:08:15.326Z,10.45
2022-11-23T08:10:46.265Z,10.23
2022-11-23T08:13:19.057Z,10.07
2022-11-23T08:15:53.956Z,10.36
2022-11-23T08:18:24.508Z,9.89
2022-11-23T08:20:52.653Z,9.39
2022-11-23T08:23:21.501Z,9.95
2022-11-23T08:25:49.542Z,10.15
2022-11-23T08:28:18.035Z,9.90
2022-11-23T08:30:46.260Z,9.35
2022-11-23T08:33:16.976Z,9.43
2022-11-23T08:35:45.332Z,9.08
2022-11-23T08:38:13.604Z,8.92
2022-11-23T08:40:41.917Z,8.56
2022-11-23T08:43:09.947Z,8.34
2022-11-23T08:45:38.267Z,7.66
2022-11-23T08:48:07.510Z,7.51
2022-11-23T08:50:37.261Z,7.95
2022-11-23T08:53:05.763Z,8.15
2022-11-23T08:55:34.086Z,8.22
2022-11-23T08:58:02.428Z,7.58
2022-11-23T09:00:31.080Z,7.59
2022-11-23T09:03:00.513Z,7.54
2022-11-23T09:05:29.571Z,7.28
2022-11-23T09:08:01.078Z,7.63
2022-11-23T09:10:29.747Z,7.40
2022-11-23T09:12:57.817Z,6.64
2022-11-23T09:15:26.161Z,6.57
2022-11-23T09:17:54.411Z,6.37
2022-11-23T09:20:22.519Z,5.98
2022-11-23T09:22:54.891Z,6.18
2022-11-23T09:25:25.170Z,6.45
2022-11-23T09:27:58.542Z,6.85
2022-11-23T09:30:26.813Z,6.45
2022-11-23T09:32:56.570Z,6.71
2022-11-23T09:35:25.424Z,6.90
2022-11-23T09:37:57.131Z,6.92
2022-11-23T09:40:29.865Z,7.09
2022-11-23T09:43:12.012Z,7.67
2022-11-23T09:45:47.355Z,7.67
2022-11-23T09:48:38.285Z,7.48
2022-11-23T09:51:15.813Z,7.87
2022-11-23T09:53:49.532Z,7.58
2022-11-23T09:56:23.643Z,7.83
2022-11-23T09:58:55.969Z,8.11
2022-11-23T10:01:24.535Z,8.30
2022-11-23T10:03:53.149Z,8.07
2022-11-23T10:06:24.075Z,7.95
2022-11-23T10:09:13.868Z,7.49
2022-11-23T10:12:21.007Z,7.55
2022-11-23T10:15:02.870Z,7.78
2022-11-23T10:17:51.124Z,7.97
2022-11-23T10:20:35.085Z,8.65
2022-11-23T10:23:05.538Z,8.98
2022-11-23T10:25:40.774Z,9.37
2022-11-23T10:28:14.472Z,9.45
2022-11-23T10:30:46.679Z,8.84
2022-11-23T10:33:25.023Z,8.58
2022-11-23T10:35:53.613Z,9.10
2022-11-23T10:38:23.082Z,9.10
2022-11-23T10:41:01.843Z,9.18
2022-11-23T10:43:33.652Z,10.03
2022-11-23T10:46:40.422Z,8.90
2022-11-23T10:49:18.464Z,9.44
2022-11-23T10:51:52.099Z,8.98
2022-11-23T10:54:24.712Z,8.76
2022-11-23T10:56:54.689Z,9.08
2022-11-23T10:59:33.932Z,9.34
2022-11-23T11:02:14.736Z,9.54
2022-11-23T11:04:44.857Z,9.98
2022-11-23T11:07:24.042Z,10.67
2022-11-23T11:10:05.167Z,10.91
2022-11-23T11:12:35.578Z,11.41
2022-11-23T11:15:15.819Z,10.71
2022-11-23T11:17:44.461Z,11.34
2022-11-23T11:20:34.123Z,11.91
2022-11-23T11:23:05.245Z,11.52
2022-11-23T11:25:36.210Z,11.17
2022-11-23T11:28:07.659Z,9.73
2022-11-23T11:30:47.165Z,9.37
2022-11-23T11:33:21.065Z,9.70
2022-11-23T11:35:53.657Z,8.95
2022-11-23T11:38:29.911Z,8.90
2022-11-23T11:41:01.750Z,8.85
2022-11-23T11:43:39.553Z,9.20
2022-11-23T11:46:31.290Z,8.60
2022-11-23T11:49:07.737Z,8.73
2022-11-23T11:51:41.333Z,9.27
2022-11-23T11:54:19.693Z,9.38
2022-11-23T11:56:51.085Z,8.78
2022-11-23T11:59:27.174Z,9.04
2022-11-23T12:02:01.524Z,8.92
2022-11-23T12:04:38.768Z,8.87
2022-11-23T12:07:15.449Z,8.84
2022-11-23T12:09:48.501Z,8.69
2022-11-23T12:12:19.447Z,8.53
2022-11-23T12:14:48.000Z,9.02
2022-11-23T12:18:04.816Z,8.74
2022-11-23T12:20:45.862Z,8.30
2022-11-23T12:23:26.072Z,8.09
2022-11-23T12:26:07.934Z,7.90
2022-11-23T12:28:52.394Z,8.04
2022-11-23T12:31:39.296Z,7.91
2022-11-23T12:34:38.025Z,8.10
2022-11-23T12:37:30.351Z,8.47
2022-11-23T12:40:20.748Z,7.47
2022-11-23T12:42:52.827Z,7.96
2022-11-23T12:45:54.570Z,7.80
2022-11-23T12:48:50.847Z,7.59
2022-11-23T12:51:28.074Z,7.54
2022-11-23T12:54:13.704Z,7.15
2022-11-23T12:56:57.112Z,7.70
2022-11-23T12:59:27.207Z,7.72
2022-11-23T13:02:00.278Z,8.09
2022-11-23T13:04:48.494Z,8.27
2022-11-23T13:07:57.081Z,8.24
2022-11-23T13:10:36.908Z,8.33
2022-11-23T13:13:29.050Z,8.28
2022-11-23T13:16:15.957Z,8.31
2022-11-23T13:19:02.978Z,7.94
2022-11-23T13:21:37.961Z,7.83
2022-11-23T13:24:25.163Z,7.72
2022-11-23T13:27:31.796Z,7.77
2022-11-23T13:30:11.115Z,7.85
2022-11-23T13:32:55.036Z,7.81
2022-11-23T13:35:56.084Z,7.86
2022-11-23T13:38:43.613Z,7.58
2022-11-23T13:41:57.362Z,7.42
2022-11-23T13:44:29.458Z,7.55
2022-11-23T13:47:05.510Z,7.59
2022-11-23T13:49:39.042Z,7.88
2022-11-23T13:52:28.231Z,7.89
2022-11-23T13:55:05.583Z,7.95
2022-11-23T13:57:37.871Z,8.03
2022-11-23T14:00:43.666Z,8.02
2022-11-23T14:03:51.786Z,8.04
2022-11-23T14:06:24.948Z,8.49
2022-11-23T14:09:00.347Z,8.42
2022-11-23T14:11:29.670Z,8.32
2022-11-23T14:14:01.949Z,8.27
2022-11-23T14:16:54.059Z,8.42
2022-11-23T14:19:33.820Z,8.28
2022-11-23T14:22:09.432Z,8.33
2022-11-23T14:24:53.673Z,7.93
2022-11-23T14:27:51.434Z,7.81
2022-11-23T14:30:40.071Z,7.67
2022-11-23T14:33:23.109Z,7.40
2022-11-23T14:36:04.257Z,7.27
2022-11-23T14:39:05.631Z,6.87
2022-11-23T14:41:36.398Z,6.63
2022-11-23T14:44:07.021Z,6.89
2022-11-23T14:46:35.082Z,7.07
2022-11-23T14:49:07.959Z,7.15
2022-11-23T14:51:43.164Z,7.48
2022-11-23T14:54:12.988Z,7.57
2022-11-23T14:56:45.440Z,7.58
2022-11-23T14:59:23.470Z,7.49
2022-11-23T15:01:53.420Z,7.52
2022-11-23T15:04:29.272Z,7.55
2022-11-23T15:07:05.161Z,7.49
2022-11-23T15:09:46.073Z,7.48
2022-11-23T15:12:23.485Z,7.45
2022-11-23T15:14:52.437Z,7.49
2022-11-23T15:17:22.236Z,7.36
2022-11-23T15:19:58.316Z,7.31
2022-11-23T15:22:28.994Z,7.20
2022-11-23T15:25:08.110Z,6.87
2022-11-23T15:27:41.418Z,7.03
2022-11-23T15:30:16.672Z,7.00
2022-11-23T15:32:45.010Z,7.15
2022-11-23T15:35:16.945Z,7.08
2022-11-23T15:37:48.918Z,7.17
2022-11-23T15:40:18.999Z,7.02
2022-11-23T15:42:49.741Z,7.05
2022-11-23T15:45:39.214Z,7.10
2022-11-23T15:48:14.058Z,7.11
2022-11-23T15:50:50.617Z,7.01
2022-11-23T15:53:22.170Z,7.05
2022-11-23T15:55:51.149Z,6.99
2022-11-23T15:58:20.724Z,7.06
2022-11-23T16:00:52.760Z,7.16
2022-11-23T16:03:33.833Z,7.01
2022-11-23T16:06:28.544Z,6.70
2022-11-23T16:08:57.867Z,6.74
2022-11-23T16:11:32.575Z,6.74
2022-11-23T16:14:19.132Z,6.58
2022-11-23T16:16:49.791Z,6.44
2022-11-23T16:19:24.136Z,6.46
2022-11-23T16:22:01.747Z,6.44
2022-11-23T16:24:35.394Z,6.25
2022-11-23T16:27:14.071Z,6.12
2022-11-23T16:29:42.566Z,6.23
2022-11-23T16:32:23.734Z,6.44
2022-11-23T16:34:52.492Z,6.56
2022-11-23T16:37:21.151Z,6.49
2022-11-23T16:39:50.559Z,6.63
2022-11-23T16:42:19.208Z,6.49
2022-11-23T16:44:47.585Z,6.39
2022-11-23T16:47:24.510Z,6.28
2022-11-23T16:49:53.506Z,6.40
2022-11-23T16:52:22.798Z,6.34
2022-11-23T16:54:53.619Z,6.04
2022-11-23T16:57:28.869Z,6.31
2022-11-23T16:59:57.880Z,6.44
2022-11-23T17:03:34.685Z,5.80
2022-11-23T17:06:03.122Z,6.20
2022-11-23T17:08:31.420Z,5.98
2022-11-23T17:11:00.883Z,6.21
2022-11-23T17:13:30.487Z,6.27
2022-11-23T17:15:58.513Z,5.98
2022-11-23T17:18:26.550Z,5.98
2022-11-23T17:20:55.987Z,5.82
2022-11-23T17:23:24.028Z,5.87
2022-11-23T17:25:52.287Z,6.14
2022-11-23T17:28:22.346Z,6.28
2022-11-23T17:30:51.045Z,6.31
2022-11-23T17:33:19.166Z,6.26
2022-11-23T17:35:47.907Z,6.45
2022-11-23T17:38:18.260Z,6.38
2022-11-23T17:40:46.755Z,6.45
2022-11-23T17:43:15.560Z,6.40
2022-11-23T17:45:46.053Z,6.27
2022-11-23T17:48:16.973Z,6.07
2022-11-23T17:50:47.377Z,6.15
2022-11-23T17:53:16.740Z,5.97
2022-11-23T17:55:46.245Z,6.11
2022-11-23T17:58:14.407Z,5.94
2022-11-23T18:00:44.316Z,5.89
2022-11-23T18:03:12.459Z,5.71
2022-11-23T18:05:40.604Z,5.45
2022-11-23T18:08:09.281Z,5.36
2022-11-23T18:10:37.377Z,5.32
2022-11-23T18:13:05.568Z,5.33
2022-11-23T18:15:33.786Z,5.28
2022-11-23T18:18:04.995Z,5.11
2022-11-23T18:20:33.253Z,4.85
2022-11-23T18:23:01.345Z,4.72
2022-11-23T18:25:29.628Z,4.59
2022-11-23T18:27:57.626Z,4.37
2022-11-23T18:30:25.727Z,4.44
2022-11-23T18:32:53.769Z,4.62
2022-11-23T18:35:23.392Z,4.57
2022-11-23T18:37:51.615Z,4.70
2022-11-23T18:40:19.654Z,4.99
2022-11-23T18:42:48.035Z,5.28
2022-11-23T18:45:16.018Z,5.28
2022-11-23T18:47:44.085Z,5.12
2022-11-23T18:50:12.127Z,4.87
2022-11-23T18:52:41.693Z,4.77
2022-11-23T18:55:09.873Z,4.64
2022-11-23T18:57:37.859Z,4.59
2022-11-23T19:00:08.117Z,4.43
2022-11-23T19:02:37.527Z,4.42
2022-11-23T19:05:06.105Z,4.80
2022-11-23T19:07:34.212Z,4.75
2022-11-23T19:10:03.841Z,4.79
2022-11-23T19:12:32.096Z,4.83
2022-11-23T19:15:00.178Z,4.89
2022-11-23T19:17:28.363Z,4.93
2022-11-23T19:19:56.765Z,4.50
2022-11-23T19:22:25.128Z,4.54
2022-11-23T19:24:53.256Z,4.63
2022-11-23T19:27:22.922Z,4.32
2022-11-23T19:29:51.930Z,4.28
2022-11-23T19:32:20.430Z,4.47
2022-11-23T19:34:48.486Z,4.67
2022-11-23T19:37:16.622Z,4.55
2022-11-23T19:39:44.795Z,4.58
2022-11-23T19:42:12.788Z,4.70
2022-11-23T19:44:42.341Z,4.75
2022-11-23T19:47:16.376Z,4.38
2022-11-23T19:49:47.137Z,4.50
2022-11-23T19:52:15.301Z,4.59
2022-11-23T19:54:43.365Z,4.32
2022-11-23T19:57:11.362Z,4.32
2022-11-23T19:59:39.839Z,4.03
2022-11-23T20:02:11.887Z,3.88
2022-11-23T20:04:40.089Z,3.91
2022-11-23T20:07:08.117Z,3.92
2022-11-23T20:09:36.455Z,3.94
2022-11-23T20:12:04.847Z,4.20
2022-11-23T20:14:33.014Z,4.31
2022-11-23T20:17:01.088Z,4.41
2022-11-23T20:19:30.958Z,4.32
2022-11-23T20:21:59.164Z,4.48
2022-11-23T20:24:27.179Z,4.60
2022-11-23T20:26:55.468Z,4.63
2022-11-23T20:29:23.552Z,4.71
2022-11-23T20:31:52.147Z,4.55
2022-11-23T20:34:24.028Z,4.59
2022-11-23T20:36:55.658Z,4.65
2022-11-23T20:39:23.716Z,4.68
2022-11-23T20:41:51.785Z,4.77
2022-11-23T20:44:20.970Z,4.65
2022-11-23T20:47:04.474Z,4.61
2022-11-23T20:49:33.321Z,4.63
2022-11-23T20:52:03.046Z,4.62
2022-11-23T20:54:32.644Z,4.60
2022-11-23T20:57:00.905Z,4.53
2022-11-23T20:59:29.449Z,4.61
2022-11-23T21:01:57.751Z,4.66
2022-11-23T21:04:26.284Z,4.72
2022-11-23T21:06:54.660Z,4.77
2022-11-23T21:09:24.214Z,4.03
2022-11-23T21:12:09.872Z,4.54
2022-11-23T21:14:38.134Z,4.80
2022-11-23T21:17:06.685Z,4.89
2022-11-23T21:19:36.645Z,4.92
2022-11-23T21:22:07.635Z,4.80
2022-11-23T21:24:37.873Z,4.83
2022-11-23T21:27:07.871Z,4.91
2022-11-23T21:29:35.820Z,4.96
2022-11-23T21:32:04.060Z,4.95
2022-11-23T21:34:32.618Z,4.83
2022-11-23T21:37:01.902Z,4.93
2022-11-23T21:39:31.981Z,5.06
2022-11-23T21:42:01.698Z,5.05
2022-11-23T21:44:29.730Z,4.83
2022-11-23T21:46:57.936Z,4.44
2022-11-23T21:49:28.664Z,4.60
2022-11-23T21:51:57.064Z,4.75
2022-11-23T21:54:25.124Z,4.77
2022-11-23T21:56:53.130Z,4.76
2022-11-23T21:59:23.362Z,4.78
2022-11-23T22:01:51.389Z,4.62
2022-11-23T22:04:19.590Z,4.66
2022-11-23T22:06:47.583Z,4.70
2022-11-23T22:09:15.812Z,4.85
2022-11-23T22:11:45.212Z,4.87
2022-11-23T22:14:14.275Z,5.01
2022-11-23T22:16:46.123Z,5.05
2022-11-23T22:19:16.408Z,5.12
2022-11-23T22:21:45.683Z,5.18
2022-11-23T22:24:15.267Z,5.00
2022-11-23T22:26:43.990Z,4.81
2022-11-23T22:29:12.547Z,4.72
2022-11-23T22:31:41.100Z,4.89
2022-11-23T22:34:12.993Z,5.07
2022-11-23T22:36:41.447Z,5.21
2022-11-23T22:39:10.307Z,5.12
2022-11-23T22:41:39.194Z,5.26
2022-11-23T22:44:09.537Z,5.16
2022-11-23T22:46:38.729Z,5.11
2022-11-23T22:49:07.380Z,5.11
2022-11-23T22:51:37.013Z,5.18
2022-11-23T22:54:05.410Z,5.12
2022-11-23T22:56:33.945Z,5.12
2022-11-23T22:59:01.950Z,5.13
2022-11-23T23:01:31.669Z,5.35
2022-11-23T23:04:02.108Z,5.42
2022-11-23T23:06:33.722Z,5.51
2022-11-23T23:09:05.615Z,5.61
2022-11-23T23:11:35.464Z,5.68
2022-11-23T23:14:03.833Z,5.23
2022-11-23T23:16:31.971Z,5.45
2022-11-23T23:19:00.540Z,5.68
2022-11-23T23:21:29.904Z,5.66
2022-11-23T23:24:00.034Z,5.48
2022-11-23T23:26:30.429Z,5.65
2022-11-23T23:28:59.790Z,5.74
2022-11-23T23:31:29.080Z,5.92
2022-11-23T23:33:57.188Z,5.81
2022-11-23T23:36:25.701Z,5.82
2022-11-23T23:38:53.834Z,5.97
2022-11-23T23:41:22.211Z,6.12
2022-11-23T23:43:51.864Z,6.17
2022-11-23T23:46:20.047Z,5.81
2022-11-23T23:48:48.093Z,5.64
2022-11-23T23:51:18.490Z,5.74
2022-11-23T23:53:47.095Z,6.08
2022-11-23T23:56:17.218Z,5.87
2022-11-23T23:58:46.234Z,5.86
